createdAt,value
2018-07-26T00:00:38.909Z,999.41
2018-07-26T00:01:37.955Z,999.28
2018-07-26T00:02:36.204Z,999.37
2018-07-26T00:03:36.115Z,999.4
2018-07-26T00:04:34.110Z,999.32
2018-07-26T00:05:33.491Z,999.25
2018-07-26T00:06:34.580Z,999.4
2018-07-26T00:07:34.039Z,999.31
2018-07-26T00:08:37.160Z,999.31
2018-07-26T00:09:41.383Z,999.34
2018-07-26T00:10:38.832Z,999.22
2018-07-26T00:11:55.714Z,999.35
2018-07-26T00:12:47.396Z,999.23
2018-07-26T00:13:52.130Z,999.25
2018-07-26T00:14:50.410Z,999.2
2018-07-26T00:15:48.890Z,999.26
2018-07-26T00:17:02.353Z,999.25
2018-07-26T00:18:06.082Z,999.32
2018-07-26T00:19:02.349Z,999.35
2018-07-26T00:20:07.448Z,999.31
2018-07-26T00:21:04.838Z,999.34
2018-07-26T00:22:10.471Z,999.31
2018-07-26T00:23:09.078Z,999.31
2018-07-26T00:24:08.984Z,999.35
2018-07-26T00:25:24.064Z,999.37
2018-07-26T00:26:24.455Z,999.38
2018-07-26T00:27:22.684Z,999.29
2018-07-26T00:28:23.238Z,999.31
2018-07-26T00:29:19.119Z,999.28
2018-07-26T00:30:20.160Z,999.32
2018-07-26T00:31:15.735Z,999.2
2018-07-26T00:32:16.956Z,999.38
2018-07-26T00:33:13.459Z,999.29
2018-07-26T00:34:14.294Z,999.38
2018-07-26T00:35:19.887Z,999.37
2018-07-26T00:36:20.874Z,999.44
2018-07-26T00:37:18.357Z,999.41
2018-07-26T00:38:19.898Z,999.35
2018-07-26T00:39:21.505Z,999.41
2018-07-26T00:40:23.438Z,999.34
2018-07-26T00:41:28.631Z,999.31
2018-07-26T00:42:35.260Z,999.41
2018-07-26T00:43:31.698Z,999.34
2018-07-26T00:44:46.240Z,999.31
2018-07-26T00:45:41.213Z,999.32
2018-07-26T00:46:52.599Z,999.35
2018-07-26T00:47:55.819Z,999.31
2018-07-26T00:48:52.694Z,999.31
2018-07-26T00:49:53.618Z,999.37
2018-07-26T00:50:48.889Z,999.29
2018-07-26T00:51:47.853Z,999.35
2018-07-26T00:52:52.605Z,999.37
2018-07-26T00:53:50.536Z,999.35
2018-07-26T00:54:50.067Z,999.35
2018-07-26T00:55:48.589Z,999.29
2018-07-26T00:56:49.032Z,999.34
2018-07-26T00:57:26.709Z,999.31
2018-07-26T00:58:36.846Z,999.34
2018-07-26T00:59:37.274Z,999.29
2018-07-26T01:00:35.621Z,999.31
2018-07-26T01:01:37.860Z,999.37
2018-07-26T01:02:34.168Z,999.28
2018-07-26T01:03:50.140Z,999.32
2018-07-26T01:04:42.819Z,999.29
2018-07-26T01:05:47.196Z,999.32
2018-07-26T01:06:52.104Z,999.31
2018-07-26T01:07:51.353Z,999.25
2018-07-26T01:08:52.989Z,999.35
2018-07-26T01:09:53.527Z,999.37
2018-07-26T01:10:53.287Z,999.31
2018-07-26T01:11:59.235Z,999.29
2018-07-26T01:13:03.844Z,999.28
2018-07-26T01:14:21.356Z,999.28
2018-07-26T01:15:12.804Z,999.28
2018-07-26T01:16:10.837Z,999.29
2018-07-26T01:17:10.465Z,999.22
2018-07-26T01:18:17.732Z,999.28
2018-07-26T01:19:22.566Z,999.31
2018-07-26T01:20:21.014Z,999.26
2018-07-26T01:21:17.224Z,999.31
2018-07-26T01:22:22.019Z,999.28
2018-07-26T01:23:17.084Z,999.28
2018-07-26T01:24:18.726Z,999.34
2018-07-26T01:25:17.631Z,999.31
2018-07-26T01:26:17.400Z,999.29
2018-07-26T01:27:16.316Z,999.26
2018-07-26T01:28:12.688Z,999.32
2018-07-26T01:29:16.154Z,999.28
2018-07-26T01:30:14.821Z,999.2
2018-07-26T01:31:13.544Z,999.29
2018-07-26T01:32:11.572Z,999.25
2018-07-26T01:33:09.037Z,999.26
2018-07-26T01:34:11.412Z,999.23
2018-07-26T01:35:12.923Z,999.28
2018-07-26T01:36:13.284Z,999.23
2018-07-26T01:37:14.832Z,999.2
2018-07-26T01:38:15.667Z,999.28
2018-07-26T01:39:28.090Z,999.28
2018-07-26T01:40:24.084Z,999.32
2018-07-26T01:41:18.684Z,999.29
2018-07-26T01:42:22.448Z,999.28
2018-07-26T01:43:22.068Z,999.26
2018-07-26T01:44:18.752Z,999.23
2018-07-26T01:45:27.302Z,999.2
2018-07-26T01:46:26.524Z,999.28
2018-07-26T01:47:26.476Z,999.17
2018-07-26T01:48:25.661Z,999.14
2018-07-26T01:49:27.085Z,999.25
2018-07-26T01:50:28.584Z,999.29
2018-07-26T01:51:30.062Z,999.28
2018-07-26T01:52:45.197Z,999.28
2018-07-26T01:53:42.710Z,999.22
2018-07-26T01:54:40.580Z,999.28
2018-07-26T01:55:41.020Z,999.25
2018-07-26T01:56:39.580Z,999.22
2018-07-26T01:57:40.815Z,999.29
2018-07-26T01:58:40.435Z,999.22
2018-07-26T01:59:38.076Z,999.23
2018-07-26T02:00:36.904Z,999.31
2018-07-26T02:01:33.589Z,999.22
2018-07-26T02:02:45.355Z,999.23
2018-07-26T02:03:48.176Z,999.29
2018-07-26T02:04:48.785Z,999.26
2018-07-26T02:05:44.724Z,999.19
2018-07-26T02:06:44.328Z,999.19
2018-07-26T02:07:45.058Z,999.16
2018-07-26T02:08:42.659Z,999.23
2018-07-26T02:09:41.454Z,999.13
2018-07-26T02:10:41.806Z,999.13
2018-07-26T02:11:41.121Z,999.2
2018-07-26T02:12:43.429Z,999.13
2018-07-26T02:13:42.902Z,999.16
2018-07-26T02:14:38.631Z,999.17
2018-07-26T02:15:36.188Z,999.14
2018-07-26T02:16:32.195Z,999.19
2018-07-26T02:17:41.044Z,999.13
2018-07-26T02:18:44.271Z,999.26
2018-07-26T02:19:45.963Z,999.22
2018-07-26T02:20:47.114Z,999.17
2018-07-26T02:21:42.428Z,999.22
2018-07-26T02:22:41.334Z,999.2
2018-07-26T02:23:53.767Z,999.14
2018-07-26T02:24:48.569Z,999.16
2018-07-26T02:25:47.406Z,999.16
2018-07-26T02:26:45.758Z,999.17
2018-07-26T02:27:44.007Z,999.16
2018-07-26T02:28:42.667Z,999.16
2018-07-26T02:29:41.974Z,999.17
2018-07-26T02:30:39.986Z,999.1
2018-07-26T02:31:41.025Z,999.13
2018-07-26T02:32:39.082Z,999.13
2018-07-26T02:33:38.794Z,999.08
2018-07-26T02:34:36.814Z,999.08
2018-07-26T02:35:34.928Z,999.11
2018-07-26T02:36:41.128Z,999.16
2018-07-26T02:37:36.760Z,999.04
2018-07-26T02:38:37.013Z,999.02
2018-07-26T02:39:47.599Z,999.11
2018-07-26T02:40:42.836Z,999.11
2018-07-26T02:41:48.435Z,999.07
2018-07-26T02:42:43.472Z,999.11
2018-07-26T02:43:49.167Z,999.08
2018-07-26T02:44:44.483Z,999.1
2018-07-26T02:45:49.631Z,999.13
2018-07-26T02:46:47.541Z,999.16
2018-07-26T02:47:48.421Z,999.19
2018-07-26T02:48:43.995Z,999.13
2018-07-26T02:49:47.390Z,999.13
2018-07-26T02:50:47.638Z,999.17
2018-07-26T02:51:49.836Z,999.16
2018-07-26T02:52:48.905Z,999.16
2018-07-26T02:53:46.739Z,999.11
2018-07-26T02:54:44.977Z,999.17
2018-07-26T02:55:44.598Z,999.1
2018-07-26T02:56:56.224Z,999.07
2018-07-26T02:57:52.137Z,999.14
2018-07-26T02:58:48.227Z,999.17
2018-07-26T02:59:53.666Z,999.1
2018-07-26T03:00:53.644Z,999.11
2018-07-26T03:01:55.858Z,999.13
2018-07-26T03:02:54.575Z,999.13
2018-07-26T03:03:52.690Z,999.22
2018-07-26T03:04:54.393Z,999.11
2018-07-26T03:05:58.410Z,999.08
2018-07-26T03:07:10.737Z,999.14
2018-07-26T03:08:08.254Z,999.17
2018-07-26T03:09:08.025Z,999.13
2018-07-26T03:10:04.962Z,999.16
2018-07-26T03:11:06.016Z,999.11
2018-07-26T03:12:04.457Z,999.13
2018-07-26T03:13:03.383Z,999.17
2018-07-26T03:14:02.014Z,999.16
2018-07-26T03:15:15.212Z,999.13
2018-07-26T03:16:14.556Z,999.11
2018-07-26T03:17:13.364Z,999.11
2018-07-26T03:18:27.652Z,999.17
2018-07-26T03:19:25.720Z,999.11
2018-07-26T03:20:24.567Z,999.13
2018-07-26T03:21:24.117Z,999.16
2018-07-26T03:22:25.112Z,999.17
2018-07-26T03:23:26.461Z,999.13
2018-07-26T03:24:23.928Z,999.16
2018-07-26T03:25:22.787Z,999.08
2018-07-26T03:26:27.278Z,999.08
2018-07-26T03:27:25.228Z,999.13
2018-07-26T03:28:23.998Z,999.13
2018-07-26T03:29:38.197Z,999.1
2018-07-26T03:30:36.917Z,999.11
2018-07-26T03:31:36.415Z,999.04
2018-07-26T03:32:31.286Z,999.1
2018-07-26T03:33:41.013Z,999.07
2018-07-26T03:34:43.372Z,999.1
2018-07-26T03:35:52.825Z,999.08
2018-07-26T03:36:52.992Z,999.11
2018-07-26T03:37:52.111Z,999.1
2018-07-26T03:38:48.099Z,999.08
2018-07-26T03:39:48.588Z,999.05
2018-07-26T03:40:53.541Z,999.05
2018-07-26T03:41:48.438Z,999.07
2018-07-26T03:43:02.562Z,999.04
2018-07-26T03:43:55.967Z,999.08
2018-07-26T03:45:02.860Z,999.05
2018-07-26T03:46:00.847Z,999.07
2018-07-26T03:47:05.145Z,999.14
2018-07-26T03:48:04.717Z,999.14
2018-07-26T03:49:03.128Z,999.13
2018-07-26T03:50:00.761Z,999.08
2018-07-26T03:51:05.118Z,999.1
2018-07-26T03:52:04.661Z,999.14
2018-07-26T03:53:07.209Z,999.05
2018-07-26T03:54:04.980Z,999.22
2018-07-26T03:54:59.865Z,999.19
2018-07-26T03:56:23.063Z,999.1
2018-07-26T03:57:13.876Z,999.11
2018-07-26T03:58:09.353Z,999.19
2018-07-26T03:59:27.352Z,999.14
2018-07-26T04:00:23.675Z,999.13
2018-07-26T04:01:26.142Z,999.2
2018-07-26T04:02:23.269Z,999.07
2018-07-26T04:03:24.701Z,999.13
2018-07-26T04:04:22.025Z,999.08
2018-07-26T04:05:22.624Z,999.13
2018-07-26T04:06:20.986Z,999.14
2018-07-26T04:07:18.825Z,999.11
2018-07-26T04:08:13.561Z,999.1
2018-07-26T04:09:14.069Z,999.11
2018-07-26T04:10:13.941Z,999.11
2018-07-26T04:11:24.525Z,999.11
2018-07-26T04:12:21.887Z,999.08
2018-07-26T04:13:22.401Z,999.16
2018-07-26T04:14:24.840Z,999.05
2018-07-26T04:15:35.518Z,999.01
2018-07-26T04:16:32.943Z,999.05
2018-07-26T04:17:29.311Z,999.17
2018-07-26T04:18:30.199Z,999.13
2018-07-26T04:19:28.281Z,999.16
2018-07-26T04:20:32.135Z,999.04
2018-07-26T04:21:32.134Z,999.08
2018-07-26T04:22:52.796Z,999.08
2018-07-26T04:23:57.366Z,999.11
2018-07-26T04:24:56.305Z,999.11
2018-07-26T04:26:07.540Z,999.1
2018-07-26T04:27:02.380Z,999.16
2018-07-26T04:28:05.234Z,999.13
2018-07-26T04:29:00.613Z,999.11
2018-07-26T04:30:01.732Z,999.14
2018-07-26T04:31:17.073Z,999.14
2018-07-26T04:32:14.530Z,999.16
2018-07-26T04:33:18.206Z,999.16
2018-07-26T04:34:16.757Z,999.16
2018-07-26T04:35:14.067Z,999.1
2018-07-26T04:36:21.048Z,999.14
2018-07-26T04:37:25.406Z,999.08
2018-07-26T04:38:28.208Z,999.07
2018-07-26T04:39:26.647Z,999.16
2018-07-26T04:40:21.553Z,999.2
2018-07-26T04:41:33.891Z,999.2
2018-07-26T04:42:34.087Z,999.22
2018-07-26T04:43:32.856Z,999.17
2018-07-26T04:44:32.834Z,999.23
2018-07-26T04:45:30.499Z,999.19
2018-07-26T04:46:31.469Z,999.14
2018-07-26T04:47:29.209Z,999.16
2018-07-26T04:48:29.369Z,999.14
2018-07-26T04:49:38.021Z,999.13
2018-07-26T04:50:35.763Z,999.11
2018-07-26T04:51:33.742Z,999.13
2018-07-26T04:52:46.837Z,999.07
2018-07-26T04:53:42.065Z,999.17
2018-07-26T04:54:44.214Z,999.13
2018-07-26T04:55:39.312Z,999.14
2018-07-26T04:56:43.079Z,999.08
2018-07-26T04:57:41.801Z,999.07
2018-07-26T04:58:39.786Z,999.05
2018-07-26T04:59:39.737Z,999.1
2018-07-26T05:00:40.784Z,999.05
2018-07-26T05:01:40.426Z,999.13
2018-07-26T05:02:38.788Z,999.08
2018-07-26T05:03:36.663Z,999.05
2018-07-26T05:04:45.506Z,999.07
2018-07-26T05:05:44.230Z,999.13
2018-07-26T05:06:44.763Z,999.02
2018-07-26T05:07:42.479Z,999.08
2018-07-26T05:08:49.703Z,999.1
2018-07-26T05:09:54.942Z,999.11
2018-07-26T05:10:59.434Z,999.08
2018-07-26T05:11:57.706Z,999.14
2018-07-26T05:12:58.230Z,999.08
2018-07-26T05:13:57.808Z,999.14
2018-07-26T05:15:01.875Z,999.16
2018-07-26T05:16:00.635Z,999.14
2018-07-26T05:17:05.528Z,999.11
2018-07-26T05:18:29.619Z,999.14
2018-07-26T05:19:24.876Z,999.08
2018-07-26T05:20:23.934Z,999.14
2018-07-26T05:21:26.478Z,999.17
2018-07-26T05:22:24.959Z,999.07
2018-07-26T05:23:24.117Z,999.2
2018-07-26T05:24:25.514Z,999.11
2018-07-26T05:25:21.309Z,999.22
2018-07-26T05:26:22.200Z,999.19
2018-07-26T05:27:18.294Z,999.26
2018-07-26T05:28:18.001Z,999.19
2018-07-26T05:29:18.325Z,999.25
2018-07-26T05:30:16.799Z,999.29
2018-07-26T05:31:15.974Z,999.29
2018-07-26T05:32:43.752Z,999.16
2018-07-26T05:33:31.545Z,999.31
2018-07-26T05:34:32.173Z,999.25
2018-07-26T05:35:27.782Z,999.29
2018-07-26T05:36:37.999Z,999.26
2018-07-26T05:37:38.351Z,999.28
2018-07-26T05:38:36.033Z,999.34
2018-07-26T05:39:32.499Z,999.26
2018-07-26T05:40:34.035Z,999.26
2018-07-26T05:41:30.405Z,999.23
2018-07-26T05:42:33.128Z,999.28
2018-07-26T05:43:35.182Z,999.26
2018-07-26T05:44:34.440Z,999.38
2018-07-26T05:45:30.813Z,999.37
2018-07-26T05:46:45.683Z,999.37
2018-07-26T05:47:44.666Z,999.26
2018-07-26T05:48:40.098Z,999.31
2018-07-26T05:49:42.294Z,999.29
2018-07-26T05:50:40.886Z,999.32
2018-07-26T05:51:47.131Z,999.29
2018-07-26T05:52:42.074Z,999.31
2018-07-26T05:53:39.787Z,999.37
2018-07-26T05:54:42.825Z,999.28
2018-07-26T05:55:39.385Z,999.34
2018-07-26T05:56:41.664Z,999.31
2018-07-26T05:57:46.292Z,999.32
2018-07-26T05:58:47.196Z,999.32
2018-07-26T05:59:49.348Z,999.29
2018-07-26T06:00:53.980Z,999.31
2018-07-26T06:01:50.453Z,999.37
2018-07-26T06:03:02.426Z,999.38
2018-07-26T06:03:58.339Z,999.35
2018-07-26T06:04:56.520Z,999.34
2018-07-26T06:06:00.093Z,999.31
2018-07-26T06:07:03.159Z,999.34
2018-07-26T06:08:09.418Z,999.35
2018-07-26T06:09:07.751Z,999.29
2018-07-26T06:10:11.815Z,999.31
2018-07-26T06:11:11.623Z,999.26
2018-07-26T06:12:13.617Z,999.32
2018-07-26T06:13:10.106Z,999.38
2018-07-26T06:14:15.967Z,999.38
2018-07-26T06:15:12.060Z,999.43
2018-07-26T06:16:19.881Z,999.35
2018-07-26T06:17:14.862Z,999.34
2018-07-26T06:18:15.336Z,999.49
2018-07-26T06:19:28.045Z,999.34
2018-07-26T06:20:23.325Z,999.4
2018-07-26T06:21:21.318Z,999.38
2018-07-26T06:22:24.951Z,999.4
2018-07-26T06:23:24.057Z,999.37
2018-07-26T06:24:22.103Z,999.35
2018-07-26T06:25:20.901Z,999.38
2018-07-26T06:26:22.651Z,999.38
2018-07-26T06:27:27.040Z,999.38
2018-07-26T06:28:24.803Z,999.38
2018-07-26T06:29:28.561Z,999.38
2018-07-26T06:30:30.483Z,999.29
2018-07-26T06:31:31.309Z,999.34
2018-07-26T06:32:33.082Z,999.37
2018-07-26T06:33:32.013Z,999.38
2018-07-26T06:34:40.559Z,999.4
2018-07-26T06:35:35.301Z,999.43
2018-07-26T06:36:34.708Z,999.29
2018-07-26T06:37:52.001Z,999.35
2018-07-26T06:38:53.119Z,999.31
2018-07-26T06:40:09.230Z,999.41
2018-07-26T06:41:07.193Z,999.32
2018-07-26T06:42:05.827Z,999.35
2018-07-26T06:43:01.055Z,999.41
2018-07-26T06:43:59.212Z,999.29
2018-07-26T06:45:00.983Z,999.35
2018-07-26T06:45:56.132Z,999.29
2018-07-26T06:46:54.707Z,999.35
2018-07-26T06:47:53.838Z,999.26
2018-07-26T06:48:54.908Z,999.35
2018-07-26T06:49:54.666Z,999.29
2018-07-26T06:50:51.564Z,999.28
2018-07-26T06:52:06.534Z,999.31
2018-07-26T06:53:01.446Z,999.4
2018-07-26T06:54:06.752Z,999.34
2018-07-26T06:55:05.275Z,999.4
2018-07-26T06:56:07.049Z,999.34
2018-07-26T06:57:11.196Z,999.35
2018-07-26T06:58:12.972Z,999.4
2018-07-26T06:59:10.633Z,999.38
2018-07-26T07:00:10.248Z,999.37
2018-07-26T07:01:12.987Z,999.38
2018-07-26T07:02:22.140Z,999.38
2018-07-26T07:03:23.544Z,999.38
2018-07-26T07:04:18.809Z,999.4
2018-07-26T07:05:35.401Z,999.35
2018-07-26T07:06:30.552Z,999.31
2018-07-26T07:07:32.307Z,999.34
2018-07-26T07:08:27.808Z,999.41
2018-07-26T07:09:32.640Z,999.43
2018-07-26T07:10:34.483Z,999.37
2018-07-26T07:11:32.978Z,999.38
2018-07-26T07:12:43.500Z,999.43
2018-07-26T07:13:46.165Z,999.37
2018-07-26T07:14:44.491Z,999.37
2018-07-26T07:15:45.856Z,999.41
2018-07-26T07:16:43.632Z,999.37
2018-07-26T07:17:56.905Z,999.37
2018-07-26T07:18:52.002Z,999.32
2018-07-26T07:19:51.076Z,999.38
2018-07-26T07:20:48.802Z,999.35
2018-07-26T07:21:48.100Z,999.35
2018-07-26T07:22:46.690Z,999.32
2018-07-26T07:23:46.704Z,999.31
2018-07-26T07:24:49.861Z,999.4
2018-07-26T07:25:54.548Z,999.28
2018-07-26T07:26:59.365Z,999.34
2018-07-26T07:28:02.253Z,999.28
2018-07-26T07:29:05.440Z,999.34
2018-07-26T07:30:04.338Z,999.32
2018-07-26T07:31:17.648Z,999.28
2018-07-26T07:32:22.299Z,999.4
2018-07-26T07:33:22.033Z,999.29
2018-07-26T07:34:19.688Z,999.29
2018-07-26T07:35:26.383Z,999.28
2018-07-26T07:36:31.692Z,999.34
2018-07-26T07:37:34.194Z,999.32
2018-07-26T07:38:32.593Z,999.26
2018-07-26T07:39:30.409Z,999.32
2018-07-26T07:40:33.080Z,999.34
2018-07-26T07:41:34.552Z,999.32
2018-07-26T07:42:37.435Z,999.28
2018-07-26T07:43:51.831Z,999.38
2018-07-26T07:44:47.877Z,999.26
2018-07-26T07:45:53.511Z,999.29
2018-07-26T07:46:54.197Z,999.29
2018-07-26T07:48:01.447Z,999.26
2018-07-26T07:48:49.256Z,999.28
2018-07-26T07:49:49.731Z,999.23
2018-07-26T07:50:49.043Z,999.31
2018-07-26T07:51:48.621Z,999.29
2018-07-26T07:52:49.448Z,999.31
2018-07-26T07:53:48.546Z,999.29
2018-07-26T07:54:49.264Z,999.26
2018-07-26T07:55:53.946Z,999.4
2018-07-26T07:56:55.315Z,999.2
2018-07-26T07:58:09.112Z,999.29
2018-07-26T07:59:06.726Z,999.23
2018-07-26T08:00:07.264Z,999.29
2018-07-26T08:01:07.498Z,999.29
2018-07-26T08:02:07.489Z,999.25
2018-07-26T08:03:02.464Z,999.26
2018-07-26T08:04:05.069Z,999.25
2018-07-26T08:05:03.678Z,999.17
2018-07-26T08:06:01.337Z,999.22
2018-07-26T08:07:09.383Z,999.26
2018-07-26T08:08:08.220Z,999.2
2018-07-26T08:09:09.045Z,999.17
2018-07-26T08:10:09.549Z,999.23
2018-07-26T08:11:10.359Z,999.25
2018-07-26T08:12:15.002Z,999.26
2018-07-26T08:13:13.556Z,999.23
2018-07-26T08:14:08.758Z,999.2
2018-07-26T08:15:24.400Z,999.31
2018-07-26T08:16:19.478Z,999.17
2018-07-26T08:17:17.371Z,999.22
2018-07-26T08:18:14.938Z,999.25
2018-07-26T08:19:13.078Z,999.19
2018-07-26T08:20:12.175Z,999.14
2018-07-26T08:21:10.956Z,999.32
2018-07-26T08:22:07.447Z,999.23
2018-07-26T08:23:07.080Z,999.23
2018-07-26T08:24:10.812Z,999.22
2018-07-26T08:25:13.107Z,999.25
2018-07-26T08:26:16.978Z,999.19
2018-07-26T08:27:13.548Z,999.17
2018-07-26T08:28:31.317Z,999.23
2018-07-26T08:29:35.241Z,999.23
2018-07-26T08:30:37.767Z,999.25
2018-07-26T08:31:39.343Z,999.23
2018-07-26T08:32:36.677Z,999.26
2018-07-26T08:33:35.849Z,999.31
2018-07-26T08:34:37.634Z,999.25
2018-07-26T08:35:39.844Z,999.31
2018-07-26T08:36:38.532Z,999.22
2018-07-26T08:37:38.054Z,999.23
2018-07-26T08:38:36.840Z,999.23
2018-07-26T08:39:49.820Z,999.25
2018-07-26T08:40:46.623Z,999.31
2018-07-26T08:41:46.731Z,999.23
2018-07-26T08:42:50.615Z,999.26
2018-07-26T08:43:48.665Z,999.28
2018-07-26T08:44:49.941Z,999.29
2018-07-26T08:45:47.729Z,999.2
2018-07-26T08:46:45.567Z,999.26
2018-07-26T08:47:44.476Z,999.16
2018-07-26T08:48:44.810Z,999.23
2018-07-26T08:49:57.744Z,999.19
2018-07-26T08:50:50.302Z,999.2
2018-07-26T08:51:51.354Z,999.19
2018-07-26T08:52:49.331Z,999.14
2018-07-26T08:53:50.118Z,999.17
2018-07-26T08:54:45.007Z,999.14
2018-07-26T08:55:53.332Z,999.16
2018-07-26T08:56:49.735Z,999.17
2018-07-26T08:57:54.839Z,999.14
2018-07-26T08:58:54.751Z,999.1
2018-07-26T08:59:57.676Z,999.22
2018-07-26T09:00:53.453Z,999.2
2018-07-26T09:01:54.481Z,999.13
2018-07-26T09:02:52.065Z,999.2
2018-07-26T09:03:49.635Z,999.2
2018-07-26T09:05:13.801Z,999.19
2018-07-26T09:06:11.175Z,999.23
2018-07-26T09:07:09.795Z,999.13
2018-07-26T09:08:08.985Z,999.19
2018-07-26T09:09:07.500Z,999.2
2018-07-26T09:10:07.029Z,999.2
2018-07-26T09:11:08.789Z,999.16
2018-07-26T09:12:11.183Z,999.17
2018-07-26T09:13:11.456Z,999.22
2018-07-26T09:14:12.653Z,999.2
2018-07-26T09:15:18.248Z,999.19
2018-07-26T09:16:11.117Z,999.2
2018-07-26T09:17:23.110Z,999.13
2018-07-26T09:18:24.334Z,999.08
2018-07-26T09:19:25.480Z,999.16
2018-07-26T09:20:21.045Z,999.11
2018-07-26T09:21:22.424Z,999.19
2018-07-26T09:22:20.629Z,999.2
2018-07-26T09:23:19.409Z,999.2
2018-07-26T09:24:23.257Z,999.16
2018-07-26T09:25:20.300Z,999.11
2018-07-26T09:26:20.583Z,999.17
2018-07-26T09:27:22.525Z,999.17
2018-07-26T09:28:22.931Z,999.13
2018-07-26T09:29:18.203Z,999.16
2018-07-26T09:30:21.936Z,999.1
2018-07-26T09:31:18.900Z,999.11
2018-07-26T09:32:16.700Z,999.11
2018-07-26T09:33:30.333Z,999.1
2018-07-26T09:34:27.237Z,999.13
2018-07-26T09:35:25.200Z,999.13
2018-07-26T09:36:23.038Z,999.08
2018-07-26T09:37:22.613Z,999.08
2018-07-26T09:38:17.334Z,999.01
2018-07-26T09:39:22.708Z,999.07
2018-07-26T09:40:23.600Z,999.11
2018-07-26T09:41:19.149Z,999.16
2018-07-26T09:42:18.481Z,999.08
2018-07-26T09:43:40.830Z,999.1
2018-07-26T09:44:35.280Z,999.07
2018-07-26T09:45:43.880Z,999.14
2018-07-26T09:46:43.470Z,999.1
2018-07-26T09:47:47.274Z,999.08
2018-07-26T09:48:49.889Z,999.08
2018-07-26T09:49:49.563Z,999.02
2018-07-26T09:50:52.348Z,999.1
2018-07-26T09:51:52.791Z,999.11
2018-07-26T09:52:55.612Z,999.01
2018-07-26T09:53:53.609Z,999.01
2018-07-26T09:54:54.778Z,999.05
2018-07-26T09:55:49.629Z,999.05
2018-07-26T09:56:55.213Z,999.01
2018-07-26T09:57:51.720Z,998.98
2018-07-26T09:58:49.919Z,999.04
2018-07-26T10:00:09.705Z,998.98
2018-07-26T10:01:00.338Z,999.04
2018-07-26T10:02:01.837Z,998.92
2018-07-26T10:02:57.658Z,999.01
2018-07-26T10:04:00.966Z,998.98
2018-07-26T10:05:02.941Z,998.96
2018-07-26T10:06:03.153Z,998.95
2018-07-26T10:06:59.310Z,998.9
2018-07-26T10:08:02.442Z,998.87
2018-07-26T10:09:02.790Z,998.9
2018-07-26T10:10:00.300Z,998.87
2018-07-26T10:10:59.212Z,998.98
2018-07-26T10:11:57.060Z,998.9
2018-07-26T10:13:09.670Z,998.89
2018-07-26T10:14:03.781Z,998.89
2018-07-26T10:15:01.595Z,998.9
2018-07-26T10:16:00.471Z,998.98
2018-07-26T10:17:02.288Z,998.96
2018-07-26T10:18:01.213Z,998.98
2018-07-26T10:19:12.395Z,998.93
2018-07-26T10:20:09.481Z,998.93
2018-07-26T10:21:09.935Z,998.96
2018-07-26T10:22:10.700Z,998.96
2018-07-26T10:23:25.789Z,998.93
2018-07-26T10:24:20.481Z,998.96
2018-07-26T10:25:18.076Z,998.92
2018-07-26T10:26:16.886Z,998.96
2018-07-26T10:27:32.539Z,998.96
2018-07-26T10:28:27.565Z,998.93
2018-07-26T10:29:26.227Z,998.86
2018-07-26T10:30:26.616Z,998.95
2018-07-26T10:31:26.342Z,998.9
2018-07-26T10:32:26.288Z,998.87
2018-07-26T10:33:30.382Z,998.87
2018-07-26T10:34:26.651Z,998.95
2018-07-26T10:35:24.828Z,998.93
2018-07-26T10:36:26.860Z,998.93
2018-07-26T10:37:39.978Z,998.96
2018-07-26T10:38:48.333Z,998.89
2018-07-26T10:39:48.649Z,998.92
2018-07-26T10:40:49.972Z,998.9
2018-07-26T10:41:47.532Z,998.84
2018-07-26T10:42:47.082Z,998.9
2018-07-26T10:43:45.841Z,998.92
2018-07-26T10:44:46.073Z,998.89
2018-07-26T10:45:41.134Z,998.87
2018-07-26T10:46:45.000Z,998.84
2018-07-26T10:47:45.771Z,998.81
2018-07-26T10:48:45.629Z,998.84
2018-07-26T10:49:57.921Z,998.81
2018-07-26T10:50:52.332Z,998.83
2018-07-26T10:51:56.885Z,998.78
2018-07-26T10:52:55.479Z,998.74
2018-07-26T10:53:51.808Z,998.81
2018-07-26T10:54:54.985Z,998.75
2018-07-26T10:55:56.288Z,998.77
2018-07-26T10:56:54.443Z,998.8
2018-07-26T10:57:53.429Z,998.86
2018-07-26T10:58:53.592Z,998.81
2018-07-26T10:59:54.159Z,998.78
2018-07-26T11:01:08.136Z,998.75
2018-07-26T11:02:19.651Z,998.78
2018-07-26T11:03:19.653Z,998.72
2018-07-26T11:04:17.444Z,998.72
2018-07-26T11:05:15.379Z,998.71
2018-07-26T11:06:14.449Z,998.74
2018-07-26T11:07:12.158Z,998.74
2018-07-26T11:08:10.286Z,998.78
2018-07-26T11:09:10.862Z,998.75
2018-07-26T11:10:11.969Z,998.8
2018-07-26T11:11:09.163Z,998.72
2018-07-26T11:12:21.031Z,998.57
2018-07-26T11:13:18.897Z,998.66
2018-07-26T11:14:14.112Z,998.68
2018-07-26T11:15:14.605Z,998.63
2018-07-26T11:16:13.996Z,998.71
2018-07-26T11:17:11.690Z,998.65
2018-07-26T11:18:06.545Z,998.74
2018-07-26T11:19:06.538Z,998.62
2018-07-26T11:20:08.503Z,998.63
2018-07-26T11:21:04.193Z,998.56
2018-07-26T11:22:16.765Z,998.57
2018-07-26T11:23:12.493Z,998.57
2018-07-26T11:24:09.250Z,998.55
2018-07-26T11:25:21.957Z,998.55
2018-07-26T11:26:18.395Z,998.54
2018-07-26T11:27:16.907Z,998.66
2018-07-26T11:28:20.316Z,998.63
2018-07-26T11:29:20.558Z,998.61
2018-07-26T11:30:19.968Z,998.6
2018-07-26T11:31:20.983Z,998.52
2018-07-26T11:32:15.847Z,998.57
2018-07-26T11:33:16.387Z,998.64
2018-07-26T11:34:14.543Z,998.6
2018-07-26T11:35:14.172Z,998.64
2018-07-26T11:36:18.929Z,998.69
2018-07-26T11:37:18.432Z,998.66
2018-07-26T11:38:30.618Z,998.57
2018-07-26T11:39:23.029Z,998.55
2018-07-26T11:40:33.112Z,998.54
2018-07-26T11:41:33.126Z,998.54
2018-07-26T11:42:30.932Z,998.51
2018-07-26T11:43:28.495Z,998.63
2018-07-26T11:44:23.104Z,998.52
2018-07-26T11:45:20.805Z,998.54
2018-07-26T11:46:27.398Z,998.55
2018-07-26T11:47:27.379Z,998.61
2018-07-26T11:48:22.273Z,998.52
2018-07-26T11:49:22.593Z,998.58
2018-07-26T11:50:24.273Z,998.58
2018-07-26T11:51:38.296Z,998.55
2018-07-26T11:52:36.308Z,998.61
2018-07-26T11:53:32.387Z,998.52
2018-07-26T11:54:35.686Z,998.51
2018-07-26T11:55:39.030Z,998.46
2018-07-26T11:56:37.963Z,998.45
2018-07-26T11:57:37.589Z,998.45
2018-07-26T11:58:35.421Z,998.46
2018-07-26T11:59:41.072Z,998.42
2018-07-26T12:00:37.284Z,998.45
2018-07-26T12:01:39.376Z,998.37
2018-07-26T12:02:47.888Z,998.4
2018-07-26T12:03:50.583Z,998.52
2018-07-26T12:04:46.283Z,998.42
2018-07-26T12:05:46.076Z,998.49
2018-07-26T12:06:41.722Z,998.46
2018-07-26T12:07:39.526Z,998.4
2018-07-26T12:08:52.089Z,998.37
2018-07-26T12:09:44.668Z,998.28
2018-07-26T12:10:48.904Z,998.26
2018-07-26T12:11:48.367Z,998.34
2018-07-26T12:12:48.832Z,998.33
2018-07-26T12:13:50.661Z,998.3
2018-07-26T12:14:49.593Z,998.27
2018-07-26T12:15:45.088Z,998.36
2018-07-26T12:16:44.001Z,998.42
2018-07-26T12:17:43.048Z,998.37
2018-07-26T12:18:58.146Z,998.33
2018-07-26T12:20:11.114Z,998.36
2018-07-26T12:21:06.833Z,998.26
2018-07-26T12:22:04.639Z,998.25
2018-07-26T12:23:02.065Z,998.31
2018-07-26T12:24:04.486Z,998.37
2018-07-26T12:25:02.348Z,998.37
2018-07-26T12:26:03.075Z,998.33
2018-07-26T12:27:05.867Z,998.31
2018-07-26T12:28:04.907Z,998.27
2018-07-26T12:29:04.431Z,998.23
2018-07-26T12:30:15.317Z,998.26
2018-07-26T12:31:30.411Z,998.26
2018-07-26T12:32:24.774Z,998.23
2018-07-26T12:33:26.258Z,998.25
2018-07-26T12:34:27.012Z,998.2
2018-07-26T12:35:28.135Z,998.19
2018-07-26T12:36:27.849Z,998.2
2018-07-26T12:37:28.143Z,998.17
2018-07-26T12:38:27.201Z,998.19
2018-07-26T12:39:23.077Z,998.11
2018-07-26T12:40:28.574Z,998.19
2018-07-26T12:41:29.379Z,998.17
2018-07-26T12:42:27.377Z,998.17
2018-07-26T12:43:25.949Z,998.13
2018-07-26T12:44:30.016Z,998.05